createdAt,value
2022-11-17T00:00:08.277Z,99555.00
2022-11-17T00:02:36.161Z,99564.00
2022-11-17T00:05:03.042Z,99551.00
2022-11-17T00:07:29.652Z,99554.00
2022-11-17T00:09:56.183Z,99561.00
2022-11-17T00:12:41.471Z,99550.00
2022-11-17T00:15:08.300Z,99555.00
2022-11-17T00:17:34.845Z,99548.00
2022-11-17T00:20:19.985Z,99548.00
2022-11-17T00:22:46.574Z,99562.00
2022-11-17T00:25:13.135Z,99555.00
2022-11-17T00:27:39.646Z,99536.00
2022-11-17T00:30:07.235Z,99542.00
2022-11-17T00:32:52.731Z,99536.00
2022-11-17T00:35:19.297Z,99534.00
2022-11-17T00:38:04.415Z,99536.00
2022-11-17T00:40:31.018Z,99535.00
2022-11-17T00:42:57.534Z,99534.00
2022-11-17T00:45:24.079Z,99541.00
2022-11-17T00:47:50.584Z,99542.00
2022-11-17T00:50:17.323Z,99539.00
2022-11-17T00:52:43.835Z,99541.00
2022-11-17T00:55:10.452Z,99535.00
2022-11-17T00:57:37.001Z,99530.00
2022-11-17T01:00:03.967Z,99526.00
2022-11-17T01:02:30.483Z,99526.00
2022-11-17T01:04:56.995Z,99528.00
2022-11-17T01:07:23.561Z,99542.00
2022-11-17T01:09:50.135Z,99531.00
2022-11-17T01:12:16.652Z,99544.00
2022-11-17T01:14:43.239Z,99529.00
2022-11-17T01:17:09.760Z,99522.00
2022-11-17T01:19:36.318Z,99533.00
2022-11-17T01:22:02.835Z,99526.00
2022-11-17T01:24:29.552Z,99525.00
2022-11-17T01:26:56.117Z,99518.00
2022-11-17T01:29:22.691Z,99514.00
2022-11-17T01:31:51.165Z,99512.00
2022-11-17T01:34:18.144Z,99508.00
2022-11-17T01:37:03.764Z,99519.00
2022-11-17T01:39:31.247Z,99515.00
2022-11-17T01:41:58.173Z,99517.00
2022-11-17T01:44:55.454Z,99517.00
2022-11-17T01:47:22.039Z,99509.00
2022-11-17T01:49:55.599Z,99509.00
2022-11-17T01:52:22.714Z,99500.00
2022-11-17T01:54:49.490Z,99497.00
2022-11-17T01:57:39.468Z,99498.00
2022-11-17T02:00:08.435Z,99490.00
2022-11-17T02:02:35.904Z,99487.00
2022-11-17T02:05:18.527Z,99487.00
2022-11-17T02:07:46.136Z,99487.00
2022-11-17T02:10:12.769Z,99486.00
2022-11-17T02:12:39.371Z,99485.00
2022-11-17T02:15:06.256Z,99489.00
2022-11-17T02:17:38.959Z,99490.00
2022-11-17T02:20:12.011Z,99494.00
2022-11-17T02:22:53.349Z,99492.00
2022-11-17T02:25:35.304Z,99484.00
2022-11-17T02:28:30.223Z,99479.00
2022-11-17T02:30:59.651Z,99481.00
2022-11-17T02:33:34.832Z,99472.00
2022-11-17T02:36:06.555Z,99485.00
2022-11-17T02:38:58.187Z,99470.00
2022-11-17T02:41:32.940Z,99470.00
2022-11-17T02:44:05.375Z,99469.00
2022-11-17T02:46:53.888Z,99478.00
2022-11-17T02:49:27.517Z,99471.00
2022-11-17T02:51:55.589Z,99478.00
2022-11-17T02:54:24.254Z,99461.00
2022-11-17T02:56:50.799Z,99459.00
2022-11-17T02:59:19.041Z,99463.00
2022-11-17T03:02:04.608Z,99450.00
2022-11-17T03:04:40.277Z,99453.00
2022-11-17T03:07:48.133Z,99463.00
2022-11-17T03:10:18.443Z,99449.00
2022-11-17T03:13:00.930Z,99450.00
2022-11-17T03:15:39.536Z,99449.00
2022-11-17T03:18:33.424Z,99453.00
2022-11-17T03:21:35.112Z,99454.00
2022-11-17T03:24:12.578Z,99455.00
2022-11-17T03:26:47.512Z,99455.00
2022-11-17T03:29:15.962Z,99456.00
2022-11-17T03:31:43.544Z,99445.00
2022-11-17T03:34:14.278Z,99450.00
2022-11-17T03:36:45.396Z,99447.00
2022-11-17T03:39:24.307Z,99443.00
2022-11-17T03:41:55.252Z,99444.00
2022-11-17T03:44:23.235Z,99449.00
2022-11-17T03:46:52.135Z,99439.00
2022-11-17T03:49:29.999Z,99444.00
2022-11-17T03:51:56.708Z,99448.00
2022-11-17T03:54:23.558Z,99445.00
2022-11-17T03:57:16.020Z,99441.00
2022-11-17T03:59:55.536Z,99446.00
2022-11-17T04:02:23.407Z,99437.00
2022-11-17T04:05:08.414Z,99432.00
2022-11-17T04:07:35.886Z,99436.00
2022-11-17T04:10:04.526Z,99430.00
2022-11-17T04:12:49.650Z,99440.00
2022-11-17T04:15:35.133Z,99438.00
2022-11-17T04:18:02.115Z,99441.00
2022-11-17T04:20:35.771Z,99438.00
2022-11-17T04:23:11.219Z,99427.00
2022-11-17T04:25:57.443Z,99426.00
2022-11-17T04:28:37.517Z,99426.00
2022-11-17T04:31:08.296Z,99422.00
2022-11-17T04:33:36.092Z,99423.00
2022-11-17T04:36:03.709Z,99421.00
2022-11-17T04:38:30.269Z,99415.00
2022-11-17T04:41:26.529Z,99421.00
2022-11-17T04:43:53.777Z,99414.00
2022-11-17T04:46:21.997Z,99417.00
2022-11-17T04:48:48.673Z,99404.00
2022-11-17T04:51:16.662Z,99405.00
2022-11-17T04:53:43.941Z,99404.00
2022-11-17T04:56:10.615Z,99407.00
2022-11-17T04:58:37.139Z,99409.00
2022-11-17T05:01:12.869Z,99410.00
2022-11-17T05:03:46.462Z,99407.00
2022-11-17T05:06:21.809Z,99407.00
2022-11-17T05:08:49.015Z,99402.00
2022-11-17T05:11:35.343Z,99410.00
2022-11-17T05:14:02.499Z,99408.00
2022-11-17T05:16:47.800Z,99409.00
2022-11-17T05:19:18.394Z,99401.00
2022-11-17T05:21:44.973Z,99396.00
2022-11-17T05:24:14.176Z,99398.00
2022-11-17T05:26:41.917Z,99394.00
2022-11-17T05:29:11.240Z,99397.00
2022-11-17T05:31:38.030Z,99385.00
2022-11-17T05:34:06.408Z,99388.00
2022-11-17T05:36:33.326Z,99392.00
2022-11-17T05:39:00.600Z,99385.00
2022-11-17T05:41:28.728Z,99386.00
2022-11-17T05:43:55.823Z,99388.00
2022-11-17T05:46:22.796Z,99383.00
2022-11-17T05:48:50.125Z,99380.00
2022-11-17T05:51:18.448Z,99366.00
2022-11-17T05:53:44.944Z,99373.00
2022-11-17T05:56:40.168Z,99368.00
2022-11-17T05:59:09.720Z,99372.00
2022-11-17T06:01:40.057Z,99370.00
2022-11-17T06:04:07.812Z,99381.00
2022-11-17T06:06:36.340Z,99372.00
2022-11-17T06:09:03.575Z,99375.00
2022-11-17T06:11:30.402Z,99379.00
2022-11-17T06:13:56.895Z,99387.00
2022-11-17T06:16:24.708Z,99378.00
2022-11-17T06:18:56.812Z,99377.00
2022-11-17T06:21:23.403Z,99365.00
2022-11-17T06:23:50.263Z,99380.00
2022-11-17T06:26:16.959Z,99383.00
2022-11-17T06:28:45.873Z,99373.00
2022-11-17T06:31:13.247Z,99385.00
2022-11-17T06:33:39.990Z,99377.00
2022-11-17T06:36:07.625Z,99377.00
2022-11-17T06:38:35.785Z,99381.00
2022-11-17T06:41:07.519Z,99372.00
2022-11-17T06:43:38.352Z,99369.00
2022-11-17T06:46:05.873Z,99365.00
2022-11-17T06:48:35.618Z,99382.00
2022-11-17T06:51:04.573Z,99361.00
2022-11-17T06:53:32.978Z,99359.00
2022-11-17T06:56:06.845Z,99361.00
2022-11-17T06:58:33.957Z,99354.00
2022-11-17T07:01:08.813Z,99356.00
2022-11-17T07:03:36.911Z,99350.00
2022-11-17T07:06:05.252Z,99352.00
2022-11-17T07:08:32.377Z,99349.00
2022-11-17T07:11:07.457Z,99342.00
2022-11-17T07:13:34.561Z,99337.00
2022-11-17T07:16:09.679Z,99341.00
2022-11-17T07:18:37.421Z,99331.00
2022-11-17T07:21:05.945Z,99327.00
2022-11-17T07:23:34.181Z,99319.00
2022-11-17T07:26:01.061Z,99343.00
2022-11-17T07:28:28.174Z,99335.00
2022-11-17T07:30:55.347Z,99333.00
2022-11-17T07:33:22.518Z,99331.00
2022-11-17T07:35:50.135Z,99326.00
2022-11-17T07:38:16.682Z,99322.00
2022-11-17T07:40:46.050Z,99330.00
2022-11-17T07:43:12.632Z,99343.00
2022-11-17T07:45:39.131Z,99340.00
2022-11-17T07:48:06.569Z,99348.00
2022-11-17T07:50:34.417Z,99337.00
2022-11-17T07:53:00.951Z,99355.00
2022-11-17T07:55:27.603Z,99341.00
2022-11-17T07:57:58.834Z,99345.00
2022-11-17T08:00:27.059Z,99347.00
2022-11-17T08:02:53.583Z,99348.00
2022-11-17T08:05:20.427Z,99340.00
2022-11-17T08:07:55.105Z,99336.00
2022-11-17T08:10:21.757Z,99326.00
2022-11-17T08:12:51.877Z,99350.00
2022-11-17T08:15:18.846Z,99346.00
2022-11-17T08:17:45.609Z,99342.00
2022-11-17T08:20:14.875Z,99333.00
2022-11-17T08:22:41.381Z,99336.00
2022-11-17T08:25:08.395Z,99330.00
2022-11-17T08:27:35.051Z,99338.00
2022-11-17T08:30:01.589Z,99340.00
2022-11-17T08:32:29.323Z,99334.00
2022-11-17T08:34:55.832Z,99335.00
2022-11-17T08:37:22.315Z,99326.00
2022-11-17T08:39:48.797Z,99319.00
2022-11-17T08:42:16.546Z,99316.00
2022-11-17T08:44:43.182Z,99322.00
2022-11-17T08:47:09.750Z,99312.00
2022-11-17T08:49:36.264Z,99327.00
2022-11-17T08:52:02.784Z,99323.00
2022-11-17T08:54:29.305Z,99317.00
2022-11-17T08:56:59.401Z,99320.00
2022-11-17T08:59:26.479Z,99309.00
2022-11-17T09:01:53.139Z,99311.00
2022-11-17T09:04:19.993Z,99318.00
2022-11-17T09:06:46.535Z,99318.00
2022-11-17T09:09:13.107Z,99325.00
2022-11-17T09:11:39.747Z,99316.00
2022-11-17T09:14:06.962Z,99306.00
2022-11-17T09:16:33.532Z,99319.00
2022-11-17T09:19:00.075Z,99330.00
2022-11-17T09:21:27.569Z,99331.00
2022-11-17T09:23:54.678Z,99339.00
2022-11-17T09:26:21.204Z,99335.00
2022-11-17T09:28:48.890Z,99329.00
2022-11-17T09:31:17.798Z,99352.00
2022-11-17T09:33:44.475Z,99334.00
2022-11-17T09:36:12.322Z,99339.00
2022-11-17T09:38:40.035Z,99338.00
2022-11-17T09:41:15.886Z,99336.00
2022-11-17T09:44:05.070Z,99322.00
2022-11-17T09:46:40.809Z,99326.00
2022-11-17T09:49:32.211Z,99319.00
2022-11-17T09:52:04.161Z,99317.00
2022-11-17T09:54:43.692Z,99324.00
2022-11-17T09:57:26.012Z,99314.00
2022-11-17T10:00:20.359Z,99317.00
2022-11-17T10:02:48.797Z,99324.00
2022-11-17T10:05:34.570Z,99322.00
2022-11-17T10:08:06.297Z,99330.00
2022-11-17T10:10:46.311Z,99337.00
2022-11-17T10:13:28.425Z,99325.00
2022-11-17T10:15:58.279Z,99333.00
2022-11-17T10:18:37.701Z,99326.00
2022-11-17T10:21:06.692Z,99317.00
2022-11-17T10:23:45.813Z,99314.00
2022-11-17T10:26:15.324Z,99312.00
2022-11-17T10:28:42.048Z,99315.00
2022-11-17T10:31:18.148Z,99311.00
2022-11-17T10:33:47.872Z,99304.00
2022-11-17T10:36:24.199Z,99314.00
2022-11-17T10:38:55.638Z,99307.00
2022-11-17T10:41:43.846Z,99289.00
2022-11-17T10:44:20.777Z,99304.00
2022-11-17T10:47:02.262Z,99304.00
2022-11-17T10:49:33.623Z,99292.00
2022-11-17T10:52:15.337Z,99290.00
2022-11-17T10:54:41.897Z,99285.00
2022-11-17T10:57:13.733Z,99294.00
2022-11-17T10:59:53.586Z,99281.00
2022-11-17T11:02:32.025Z,99280.00
2022-11-17T11:05:19.733Z,99279.00
2022-11-17T11:07:46.227Z,99276.00
2022-11-17T11:10:32.666Z,99264.00
2022-11-17T11:13:37.771Z,99267.00
2022-11-17T11:16:05.203Z,99260.00
2022-11-17T11:18:31.940Z,99259.00
2022-11-17T11:21:12.394Z,99256.00
2022-11-17T11:23:54.385Z,99251.00
2022-11-17T11:26:23.965Z,99248.00
2022-11-17T11:29:30.379Z,99240.00
2022-11-17T11:32:16.601Z,99236.00
2022-11-17T11:35:17.360Z,99232.00
2022-11-17T11:37:55.100Z,99233.00
2022-11-17T11:40:32.236Z,99228.00
2022-11-17T11:43:00.352Z,99234.00
2022-11-17T11:45:39.246Z,99237.00
2022-11-17T11:48:12.274Z,99220.00
2022-11-17T11:50:56.836Z,99223.00
2022-11-17T11:53:42.333Z,99215.00
2022-11-17T11:56:21.082Z,99225.00
2022-11-17T11:59:00.642Z,99217.00
2022-11-17T12:01:29.278Z,99217.00
2022-11-17T12:04:21.211Z,99230.00
2022-11-17T12:07:02.308Z,99225.00
2022-11-17T12:09:41.151Z,99229.00
2022-11-17T12:12:09.343Z,99218.00
2022-11-17T12:14:37.588Z,99213.00
2022-11-17T12:17:13.206Z,99212.00
2022-11-17T12:20:03.526Z,99213.00
2022-11-17T12:22:32.830Z,99225.00
2022-11-17T12:25:04.598Z,99219.00
2022-11-17T12:27:34.966Z,99208.00
2022-11-17T12:30:13.751Z,99219.00
2022-11-17T12:32:46.332Z,99225.00
2022-11-17T12:35:38.003Z,99217.00
2022-11-17T12:38:16.775Z,99213.00
2022-11-17T12:40:48.132Z,99212.00
2022-11-17T12:43:14.605Z,99221.00
2022-11-17T12:45:53.188Z,99205.00
2022-11-17T12:48:33.340Z,99216.00
2022-11-17T12:51:13.422Z,99213.00
2022-11-17T12:53:54.871Z,99207.00
2022-11-17T12:56:45.683Z,99215.00
2022-11-17T12:59:33.450Z,99208.00
2022-11-17T13:02:12.722Z,99207.00
2022-11-17T13:04:50.005Z,99203.00
2022-11-17T13:07:22.319Z,99205.00
2022-11-17T13:09:59.819Z,99205.00
2022-11-17T13:12:28.530Z,99214.00
2022-11-17T13:15:04.082Z,99203.00
2022-11-17T13:17:35.212Z,99218.00
2022-11-17T13:20:17.664Z,99201.00
2022-11-17T13:23:07.199Z,99194.00
2022-11-17T13:25:34.708Z,99205.00
2022-11-17T13:28:04.805Z,99209.00
2022-11-17T13:30:32.609Z,99210.00
2022-11-17T13:33:01.446Z,99205.00
2022-11-17T13:35:34.374Z,99200.00
2022-11-17T13:38:20.812Z,99204.00
2022-11-17T13:40:49.885Z,99197.00
2022-11-17T13:43:19.744Z,99209.00
2022-11-17T13:45:47.564Z,99195.00
2022-11-17T13:48:49.914Z,99190.00
2022-11-17T13:51:38.904Z,99209.00
2022-11-17T13:54:06.874Z,99200.00
2022-11-17T13:56:33.382Z,99202.00
2022-11-17T13:59:02.772Z,99203.00
2022-11-17T14:01:30.827Z,99197.00
2022-11-17T14:04:22.347Z,99196.00
2022-11-17T14:06:52.284Z,99193.00
2022-11-17T14:09:19.034Z,99203.00
2022-11-17T14:11:45.588Z,99194.00
2022-11-17T14:14:13.805Z,99185.00
2022-11-17T14:16:41.498Z,99201.00
2022-11-17T14:19:14.336Z,99182.00
2022-11-17T14:22:00.532Z,99185.00
2022-11-17T14:24:28.141Z,99182.00
2022-11-17T14:26:55.119Z,99176.00
2022-11-17T14:29:21.730Z,99180.00
2022-11-17T14:31:48.251Z,99183.00
2022-11-17T14:34:15.157Z,99188.00
2022-11-17T14:36:41.821Z,99182.00
2022-11-17T14:39:16.401Z,99182.00
2022-11-17T14:41:44.151Z,99186.00
2022-11-17T14:44:11.195Z,99188.00
2022-11-17T14:46:38.056Z,99193.00
2022-11-17T14:49:04.829Z,99186.00
2022-11-17T14:51:32.063Z,99185.00
2022-11-17T14:53:58.655Z,99180.00
2022-11-17T14:56:25.384Z,99179.00
2022-11-17T14:58:57.955Z,99200.00
2022-11-17T15:01:29.182Z,99197.00
2022-11-17T15:03:57.650Z,99189.00
2022-11-17T15:06:24.849Z,99187.00
2022-11-17T15:08:56.570Z,99192.00
2022-11-17T15:11:24.192Z,99191.00
2022-11-17T15:13:50.723Z,99179.00
2022-11-17T15:16:17.624Z,99170.00
2022-11-17T15:18:45.557Z,99188.00
2022-11-17T15:21:12.802Z,99176.00
2022-11-17T15:23:40.236Z,99183.00
2022-11-17T15:26:08.481Z,99183.00
2022-11-17T15:28:35.061Z,99187.00
2022-11-17T15:31:18.716Z,99178.00
2022-11-17T15:33:46.575Z,99191.00
2022-11-17T15:36:16.702Z,99177.00
2022-11-17T15:38:43.574Z,99172.00
2022-11-17T15:41:11.748Z,99198.00
2022-11-17T15:43:39.873Z,99174.00
2022-11-17T15:46:07.359Z,99183.00
2022-11-17T15:48:34.917Z,99185.00
2022-11-17T15:51:05.071Z,99184.00
2022-11-17T15:53:36.398Z,99187.00
2022-11-17T15:56:17.326Z,99182.00
2022-11-17T15:58:44.112Z,99179.00
2022-11-17T16:01:33.876Z,99191.00
2022-11-17T16:04:05.546Z,99172.00
2022-11-17T16:06:34.686Z,99186.00
2022-11-17T16:09:01.522Z,99190.00
2022-11-17T16:11:28.309Z,99181.00
2022-11-17T16:13:56.130Z,99175.00
2022-11-17T16:16:24.201Z,99181.00
2022-11-17T16:18:50.793Z,99190.00
2022-11-17T16:21:17.406Z,99180.00
2022-11-17T16:23:53.137Z,99185.00
2022-11-17T16:26:20.509Z,99174.00
2022-11-17T16:28:47.765Z,99174.00
2022-11-17T16:31:15.345Z,99185.00
2022-11-17T16:33:50.109Z,99182.00
2022-11-17T16:36:18.027Z,99182.00
2022-11-17T16:38:59.949Z,99165.00
2022-11-17T16:41:30.840Z,99185.00
2022-11-17T16:43:57.515Z,99182.00
2022-11-17T16:46:26.964Z,99167.00
2022-11-17T16:48:57.469Z,99174.00
2022-11-17T16:51:24.646Z,99168.00
2022-11-17T16:53:59.430Z,99164.00
2022-11-17T16:56:25.949Z,99155.00
2022-11-17T16:58:52.849Z,99160.00
2022-11-17T17:01:21.677Z,99167.00
2022-11-17T17:03:48.235Z,99162.00
2022-11-17T17:06:17.366Z,99182.00
2022-11-17T17:08:44.733Z,99174.00
2022-11-17T17:11:15.784Z,99181.00
2022-11-17T17:13:43.021Z,99179.00
2022-11-17T17:16:14.488Z,99191.00
2022-11-17T17:18:41.639Z,99180.00
2022-11-17T17:21:13.002Z,99181.00
2022-11-17T17:23:39.722Z,99184.00
2022-11-17T17:26:09.242Z,99184.00
2022-11-17T17:28:37.696Z,99183.00
2022-11-17T17:31:04.535Z,99190.00
2022-11-17T17:33:32.412Z,99181.00
2022-11-17T17:36:03.452Z,99158.00
2022-11-17T17:38:30.011Z,99172.00
2022-11-17T17:40:56.550Z,99183.00
2022-11-17T17:43:23.057Z,99175.00
2022-11-17T17:45:49.540Z,99177.00
2022-11-17T17:48:16.100Z,99186.00
2022-11-17T17:50:42.683Z,99182.00
2022-11-17T17:53:09.231Z,99184.00
2022-11-17T17:55:35.758Z,99184.00
2022-11-17T17:58:02.284Z,99186.00
2022-11-17T18:00:28.727Z,99192.00
2022-11-17T18:02:55.232Z,99189.00
2022-11-17T18:05:22.547Z,99191.00
2022-11-17T18:07:49.488Z,99195.00
2022-11-17T18:10:16.740Z,99192.00
2022-11-17T18:12:43.207Z,99195.00
2022-11-17T18:15:10.393Z,99187.00
2022-11-17T18:17:36.879Z,99199.00
2022-11-17T18:20:03.988Z,99191.00
2022-11-17T18:22:30.754Z,99192.00
2022-11-17T18:24:58.429Z,99185.00
2022-11-17T18:27:25.056Z,99199.00
2022-11-17T18:29:51.617Z,99197.00
2022-11-17T18:32:18.170Z,99195.00
2022-11-17T18:34:44.641Z,99197.00
2022-11-17T18:37:11.177Z,99198.00
2022-11-17T18:39:38.154Z,99201.00
2022-11-17T18:42:04.933Z,99205.00
2022-11-17T18:44:31.424Z,99199.00
2022-11-17T18:47:02.544Z,99192.00
2022-11-17T18:49:30.495Z,99203.00
2022-11-17T18:51:56.991Z,99187.00
2022-11-17T18:54:23.852Z,99182.00
2022-11-17T18:56:50.478Z,99190.00
2022-11-17T18:59:18.567Z,99197.00
2022-11-17T19:01:45.327Z,99199.00
2022-11-17T19:04:13.637Z,99195.00
2022-11-17T19:06:40.202Z,99199.00
2022-11-17T19:09:08.064Z,99200.00
2022-11-17T19:11:34.745Z,99203.00
2022-11-17T19:14:02.447Z,99196.00
2022-11-17T19:16:29.997Z,99192.00
2022-11-17T19:18:57.173Z,99196.00
2022-11-17T19:21:28.892Z,99196.00
2022-11-17T19:23:58.967Z,99176.00
2022-11-17T19:26:27.820Z,99192.00
2022-11-17T19:28:55.889Z,99201.00
2022-11-17T19:31:22.549Z,99199.00
2022-11-17T19:33:50.130Z,99211.00
2022-11-17T19:36:22.178Z,99202.00
2022-11-17T19:38:52.784Z,99201.00
2022-11-17T19:41:22.048Z,99200.00
2022-11-17T19:43:48.777Z,99208.00
2022-11-17T19:46:17.130Z,99205.00
2022-11-17T19:48:44.389Z,99206.00
2022-11-17T19:51:16.818Z,99217.00
2022-11-17T19:53:43.445Z,99201.00
2022-11-17T19:56:09.966Z,99211.00
2022-11-17T19:58:36.472Z,99203.00
2022-11-17T20:01:15.415Z,99218.00
2022-11-17T20:03:42.668Z,99211.00
2022-11-17T20:06:10.814Z,99212.00
2022-11-17T20:08:37.622Z,99221.00
2022-11-17T20:11:06.632Z,99216.00
2022-11-17T20:13:33.923Z,99210.00
2022-11-17T20:16:01.628Z,99223.00
2022-11-17T20:18:28.774Z,99222.00
2022-11-17T20:20:55.428Z,99224.00
2022-11-17T20:23:22.286Z,99220.00
2022-11-17T20:25:48.808Z,99212.00
2022-11-17T20:28:15.801Z,99218.00
2022-11-17T20:30:42.719Z,99216.00
2022-11-17T20:33:09.212Z,99218.00
2022-11-17T20:35:37.095Z,99226.00
2022-11-17T20:38:04.254Z,99220.00
2022-11-17T20:40:31.943Z,99216.00
2022-11-17T20:42:58.751Z,99227.00
2022-11-17T20:45:27.597Z,99225.00
2022-11-17T20:47:54.059Z,99231.00
2022-11-17T20:50:20.585Z,99229.00
2022-11-17T20:52:47.107Z,99237.00
2022-11-17T20:55:13.600Z,99226.00
2022-11-17T20:57:40.074Z,99226.00
2022-11-17T21:00:07.241Z,99218.00
2022-11-17T21:02:33.788Z,99235.00
2022-11-17T21:05:00.318Z,99221.00
2022-11-17T21:07:26.888Z,99235.00
2022-11-17T21:09:53.560Z,99225.00
2022-11-17T21:12:20.032Z,99225.00
2022-11-17T21:14:46.560Z,99234.00
2022-11-17T21:17:33.048Z,99234.00
2022-11-17T21:19:59.572Z,99232.00
2022-11-17T21:22:26.066Z,99231.00
2022-11-17T21:24:52.617Z,99239.00
2022-11-17T21:27:19.802Z,99244.00
2022-11-17T21:29:46.836Z,99242.00
2022-11-17T21:32:13.383Z,99234.00
2022-11-17T21:34:39.895Z,99234.00
2022-11-17T21:37:06.431Z,99232.00
2022-11-17T21:39:32.960Z,99235.00
2022-11-17T21:41:59.953Z,99235.00
2022-11-17T21:44:26.490Z,99239.00
2022-11-17T21:46:53.035Z,99231.00
2022-11-17T21:49:19.793Z,99243.00
2022-11-17T21:51:46.326Z,99241.00
2022-11-17T21:54:12.888Z,99244.00
2022-11-17T21:56:40.170Z,99244.00
2022-11-17T21:59:10.819Z,99248.00
2022-11-17T22:01:37.465Z,99242.00
2022-11-17T22:04:04.792Z,99242.00
2022-11-17T22:06:31.427Z,99241.00
2022-11-17T22:08:58.845Z,99246.00
2022-11-17T22:11:37.353Z,99250.00
2022-11-17T22:14:15.816Z,99243.00
2022-11-17T22:16:44.264Z,99240.00
2022-11-17T22:19:11.951Z,99247.00
2022-11-17T22:21:39.486Z,99252.00
2022-11-17T22:24:07.396Z,99246.00
2022-11-17T22:26:38.332Z,99243.00
2022-11-17T22:29:11.539Z,99247.00
2022-11-17T22:31:38.267Z,99243.00
2022-11-17T22:34:04.837Z,99250.00
2022-11-17T22:36:31.364Z,99249.00
2022-11-17T22:38:58.032Z,99241.00
2022-11-17T22:41:24.623Z,99254.00
2022-11-17T22:43:55.651Z,99252.00
2022-11-17T22:46:24.494Z,99253.00
2022-11-17T22:48:51.771Z,99252.00
2022-11-17T22:51:37.481Z,99264.00
2022-11-17T22:54:07.922Z,99266.00
2022-11-17T22:56:34.658Z,99268.00
2022-11-17T22:59:01.201Z,99271.00
2022-11-17T23:01:27.826Z,99273.00
2022-11-17T23:03:54.515Z,99286.00
2022-11-17T23:06:22.563Z,99274.00
2022-11-17T23:08:49.151Z,99273.00
2022-11-17T23:11:35.939Z,99273.00
2022-11-17T23:14:02.273Z,99278.00
2022-11-17T23:16:28.894Z,99277.00
2022-11-17T23:18:56.071Z,99271.00
2022-11-17T23:21:23.351Z,99280.00
2022-11-17T23:23:50.071Z,99287.00
2022-11-17T23:26:16.745Z,99292.00
2022-11-17T23:28:43.653Z,99291.00
2022-11-17T23:31:12.399Z,99285.00
2022-11-17T23:33:43.638Z,99275.00
2022-11-17T23:36:15.665Z,99285.00
2022-11-17T23:38:42.298Z,99274.00
2022-11-17T23:41:11.144Z,99272.00
2022-11-17T23:43:37.698Z,99280.00
2022-11-17T23:46:06.073Z,99277.00
2022-11-17T23:48:32.887Z,99287.00
2022-11-17T23:51:03.623Z,99290.00
2022-11-17T23:53:30.127Z,99286.00
2022-11-17T23:55:57.320Z,99293.00
2022-11-17T23:58:24.460Z,99300.00
